createdAt,value
2018-07-13T00:02:04.313Z,63.50
2018-07-13T00:04:32.599Z,64.30
2018-07-13T00:07:00.180Z,64.50
2018-07-13T00:09:27.687Z,65.10
2018-07-13T00:11:55.247Z,65.40
2018-07-13T00:14:23.845Z,65.30
2018-07-13T00:16:53.987Z,65.80
2018-07-13T00:19:22.319Z,65.10
2018-07-13T00:21:49.984Z,65.20
2018-07-13T00:24:19.185Z,65.00
2018-07-13T00:26:48.552Z,65.80
2018-07-13T00:29:16.282Z,65.90
2018-07-13T00:31:44.126Z,65.90
2018-07-13T00:34:11.699Z,65.50
2018-07-13T00:36:39.371Z,65.50
2018-07-13T00:39:08.154Z,66.30
2018-07-13T00:41:35.735Z,66.10
2018-07-13T00:44:04.196Z,67.60
2018-07-13T00:46:31.774Z,67.60
2018-07-13T00:49:00.001Z,67.30
2018-07-13T00:51:28.117Z,67.30
2018-07-13T00:53:55.759Z,67.60
2018-07-13T00:56:23.383Z,67.50
2018-07-13T00:58:50.939Z,68.00
2018-07-13T01:01:19.083Z,68.20
2018-07-13T01:03:46.631Z,68.20
2018-07-13T01:06:14.673Z,68.50
2018-07-13T01:08:42.257Z,67.90
2018-07-13T01:11:09.845Z,68.10
2018-07-13T01:13:38.557Z,67.60
2018-07-13T01:16:06.229Z,68.20
2018-07-13T01:18:33.748Z,67.40
2018-07-13T01:21:01.446Z,68.60
2018-07-13T01:23:29.107Z,68.80
2018-07-13T01:25:56.795Z,69.00
2018-07-13T01:28:24.465Z,68.60
2018-07-13T01:30:52.394Z,68.20
2018-07-13T01:33:20.070Z,68.30
2018-07-13T01:35:47.680Z,68.20
2018-07-13T01:38:15.631Z,68.30
2018-07-13T01:40:43.790Z,68.20
2018-07-13T01:43:12.088Z,69.50
2018-07-13T01:45:39.670Z,69.30
2018-07-13T01:48:07.383Z,69.20
2018-07-13T01:50:34.947Z,68.80
2018-07-13T01:53:02.635Z,68.90
2018-07-13T01:55:30.453Z,69.40
2018-07-13T01:57:58.086Z,69.40
2018-07-13T02:00:25.688Z,69.40
2018-07-13T02:02:53.404Z,70.30
2018-07-13T02:05:21.023Z,69.70
2018-07-13T02:07:49.363Z,69.20
2018-07-13T02:10:17.895Z,69.30
2018-07-13T02:12:45.493Z,69.20
2018-07-13T02:15:15.868Z,69.70
2018-07-13T02:17:44.593Z,69.10
2018-07-13T02:20:13.075Z,69.70
2018-07-13T02:22:40.791Z,69.70
2018-07-13T02:25:08.389Z,70.40
2018-07-13T02:27:35.994Z,70.30
2018-07-13T02:30:03.870Z,71.10
2018-07-13T02:32:31.472Z,70.60
2018-07-13T02:34:59.117Z,70.90
2018-07-13T02:37:30.947Z,71.70
2018-07-13T02:39:58.563Z,72.00
2018-07-13T02:42:26.140Z,70.70
2018-07-13T02:44:53.859Z,70.10
2018-07-13T02:47:21.434Z,71.40
2018-07-13T02:49:49.074Z,70.20
2018-07-13T02:52:16.739Z,70.40
2018-07-13T02:54:44.383Z,70.30
2018-07-13T02:57:13.022Z,71.00
2018-07-13T02:59:40.657Z,70.70
2018-07-13T03:02:08.306Z,71.50
2018-07-13T03:04:35.911Z,71.60
2018-07-13T03:07:04.369Z,71.30
2018-07-13T03:09:35.446Z,71.40
2018-07-13T03:12:03.156Z,71.30
2018-07-13T03:14:30.750Z,71.50
2018-07-13T03:16:58.483Z,71.10
2018-07-13T03:19:26.228Z,71.00
2018-07-13T03:21:54.624Z,71.30
2018-07-13T03:24:23.604Z,71.20
2018-07-13T03:26:51.231Z,71.10
2018-07-13T03:29:18.914Z,71.40
2018-07-13T03:31:47.288Z,71.20
2018-07-13T03:34:15.406Z,71.00
2018-07-13T03:36:43.072Z,71.70
2018-07-13T03:39:11.458Z,71.00
2018-07-13T03:41:39.087Z,71.10
2018-07-13T03:44:07.222Z,72.50
2018-07-13T03:46:34.807Z,72.00
2018-07-13T03:49:02.470Z,72.30
2018-07-13T03:51:30.108Z,71.30
2018-07-13T03:53:57.778Z,71.20
2018-07-13T03:56:25.510Z,72.30
2018-07-13T03:58:53.160Z,71.70
2018-07-13T04:01:20.801Z,72.20
2018-07-13T04:03:48.382Z,72.50
2018-07-13T04:06:17.656Z,72.20
2018-07-13T04:08:45.250Z,72.40
2018-07-13T04:11:15.654Z,72.30
2018-07-13T04:13:43.302Z,72.30
2018-07-13T04:16:10.954Z,71.90
2018-07-13T04:18:38.572Z,72.00
2018-07-13T04:21:06.267Z,72.00
2018-07-13T04:23:33.902Z,72.60
2018-07-13T04:26:01.670Z,72.30
2018-07-13T04:28:30.089Z,72.90
2018-07-13T04:30:57.808Z,72.40
2018-07-13T04:33:25.527Z,72.70
2018-07-13T04:35:53.222Z,72.60
2018-07-13T04:38:20.822Z,72.50
2018-07-13T04:40:48.466Z,71.90
2018-07-13T04:43:16.216Z,72.40
2018-07-13T04:45:44.005Z,72.40
2018-07-13T04:48:11.816Z,72.30
2018-07-13T04:50:39.518Z,72.00
2018-07-13T04:53:07.203Z,72.40
2018-07-13T04:55:35.421Z,72.30
2018-07-13T04:58:03.206Z,72.70
2018-07-13T05:00:31.432Z,72.60
2018-07-13T05:02:59.181Z,72.10
2018-07-13T05:05:27.047Z,72.10
2018-07-13T05:07:54.759Z,72.00
2018-07-13T05:10:22.890Z,72.20
2018-07-13T05:12:50.580Z,72.10
2018-07-13T05:15:18.286Z,72.40
2018-07-13T05:17:45.948Z,72.20
2018-07-13T05:20:13.594Z,72.20
2018-07-13T05:22:41.974Z,72.10
2018-07-13T05:25:09.946Z,71.90
2018-07-13T05:27:37.812Z,72.20
2018-07-13T05:30:06.320Z,71.90
2018-07-13T05:32:34.522Z,71.90
2018-07-13T05:35:02.371Z,71.60
2018-07-13T05:37:30.749Z,71.70
2018-07-13T05:39:58.756Z,72.00
2018-07-13T05:42:26.450Z,72.10
2018-07-13T05:44:54.168Z,71.90
2018-07-13T05:47:21.913Z,71.70
2018-07-13T05:49:49.953Z,71.30
2018-07-13T05:52:19.233Z,71.00
2018-07-13T05:54:47.661Z,70.30
2018-07-13T05:57:15.461Z,70.40
2018-07-13T05:59:43.505Z,70.00
2018-07-13T06:02:11.191Z,69.60
2018-07-13T06:04:38.925Z,69.60
2018-07-13T06:07:07.447Z,69.30
2018-07-13T06:09:35.203Z,68.50
2018-07-13T06:12:02.796Z,68.50
2018-07-13T06:14:30.431Z,68.10
2018-07-13T06:16:58.102Z,68.30
2018-07-13T06:19:26.605Z,67.50
2018-07-13T06:21:54.337Z,67.20
2018-07-13T06:24:22.191Z,66.60
2018-07-13T06:26:52.584Z,65.20
2018-07-13T06:29:20.355Z,64.70
2018-07-13T06:31:49.664Z,64.80
2018-07-13T06:34:17.362Z,64.10
2018-07-13T06:36:45.098Z,64.10
2018-07-13T06:39:13.129Z,62.50
2018-07-13T06:41:40.801Z,62.00
2018-07-13T06:44:08.515Z,61.90
2018-07-13T06:46:41.612Z,61.30
2018-07-13T06:49:11.211Z,60.90
2018-07-13T06:51:38.962Z,59.10
2018-07-13T06:54:07.243Z,59.30
2018-07-13T06:56:34.897Z,59.20
2018-07-13T06:59:17.207Z,57.90
2018-07-13T07:01:46.504Z,57.40
2018-07-13T07:04:35.758Z,58.40
2018-07-13T07:07:11.679Z,57.70
2018-07-13T07:09:40.639Z,56.90
2018-07-13T07:13:16.231Z,55.40
2018-07-13T07:15:43.984Z,55.50
2018-07-13T07:18:12.482Z,53.20
2018-07-13T07:20:42.183Z,52.40
2018-07-13T07:23:09.895Z,52.40
2018-07-13T07:25:38.752Z,52.50
2018-07-13T07:28:07.899Z,52.40
2018-07-13T07:30:35.503Z,49.10
2018-07-13T07:33:03.186Z,49.10
2018-07-13T07:35:30.928Z,48.70
2018-07-13T07:37:58.738Z,49.00
2018-07-13T07:40:26.496Z,48.00
2018-07-13T07:42:54.129Z,45.90
2018-07-13T07:45:21.847Z,45.60
2018-07-13T07:47:49.621Z,46.10
2018-07-13T07:50:17.493Z,45.60
2018-07-13T07:52:45.270Z,45.90
2018-07-13T07:55:13.180Z,46.40
2018-07-13T07:57:40.896Z,45.40
2018-07-13T08:00:08.468Z,44.90
2018-07-13T08:02:36.034Z,44.60
2018-07-13T08:05:03.964Z,41.10
2018-07-13T08:07:31.833Z,43.30
2018-07-13T08:09:59.588Z,43.50
2018-07-13T08:12:27.197Z,43.50
2018-07-13T08:14:55.516Z,43.60
2018-07-13T08:17:23.677Z,43.70
2018-07-13T08:19:51.852Z,42.30
2018-07-13T08:22:25.017Z,43.10
2018-07-13T08:24:54.830Z,42.30
2018-07-13T08:27:25.548Z,40.60
2018-07-13T08:29:53.679Z,41.70
2018-07-13T08:32:21.226Z,41.70
2018-07-13T08:34:48.805Z,42.90
2018-07-13T08:37:16.389Z,41.60
2018-07-13T08:39:44.096Z,41.60
2018-07-13T08:42:11.751Z,41.80
2018-07-13T08:44:39.512Z,41.40
2018-07-13T08:47:07.172Z,41.20
2018-07-13T08:49:35.346Z,40.70
2018-07-13T08:52:03.156Z,40.10
2018-07-13T08:54:30.862Z,40.00
2018-07-13T08:56:58.816Z,39.00
2018-07-13T08:59:26.597Z,39.40
2018-07-13T09:01:54.801Z,39.50
2018-07-13T09:04:23.500Z,39.70
2018-07-13T09:06:51.477Z,39.60
2018-07-13T09:09:19.608Z,37.80
2018-07-13T09:11:47.461Z,38.20
2018-07-13T09:14:15.062Z,37.60
2018-07-13T09:16:42.876Z,37.40
2018-07-13T09:19:10.540Z,36.60
2018-07-13T09:21:38.240Z,37.00
2018-07-13T09:24:06.811Z,37.20
2018-07-13T09:26:35.173Z,35.50
2018-07-13T09:29:02.834Z,35.80
2018-07-13T09:31:30.550Z,34.90
2018-07-13T09:33:58.361Z,35.00
2018-07-13T09:36:26.145Z,35.10
2018-07-13T09:38:53.763Z,35.20
2018-07-13T09:41:21.638Z,35.20
2018-07-13T09:43:51.520Z,33.40
2018-07-13T09:46:19.509Z,33.20
2018-07-13T09:48:47.190Z,34.00
2018-07-13T09:51:15.701Z,34.10
2018-07-13T09:53:43.487Z,33.00
2018-07-13T09:56:11.052Z,33.40
2018-07-13T09:58:39.294Z,33.40
2018-07-13T10:01:12.498Z,32.80
2018-07-13T10:03:40.143Z,33.90
2018-07-13T10:06:07.832Z,32.50
2018-07-13T10:08:35.760Z,33.10
2018-07-13T10:11:03.423Z,32.80
2018-07-13T10:13:31.380Z,32.70
2018-07-13T10:15:59.066Z,31.80
2018-07-13T10:18:27.532Z,30.60
2018-07-13T10:20:56.050Z,29.70
2018-07-13T10:23:24.335Z,27.80
2018-07-13T10:25:55.462Z,28.60
2018-07-13T10:28:23.162Z,29.60
2018-07-13T10:30:50.868Z,28.80
2018-07-13T10:33:19.442Z,26.30
2018-07-13T10:35:47.138Z,24.80
2018-07-13T10:38:15.187Z,22.90
2018-07-13T10:40:43.299Z,24.10
2018-07-13T10:43:10.991Z,25.20
2018-07-13T10:45:38.685Z,25.90
2018-07-13T10:48:06.606Z,26.10
2018-07-13T10:50:35.173Z,25.50
2018-07-13T10:53:08.109Z,26.60
2018-07-13T10:55:35.705Z,24.40
2018-07-13T10:58:03.366Z,24.40
2018-07-13T11:00:33.984Z,23.30
2018-07-13T11:03:01.727Z,24.20
2018-07-13T11:05:29.384Z,24.80
2018-07-13T11:07:57.168Z,24.30
2018-07-13T11:10:24.713Z,23.80
2018-07-13T11:12:53.233Z,24.30
2018-07-13T11:15:20.921Z,24.40
2018-07-13T11:17:48.539Z,24.90
2018-07-13T11:20:16.239Z,23.60
2018-07-13T11:22:44.227Z,23.50
2018-07-13T11:25:12.099Z,24.40
2018-07-13T11:27:39.787Z,24.50
2018-07-13T11:30:07.610Z,24.10
2018-07-13T11:32:35.472Z,24.40
2018-07-13T11:35:03.956Z,23.50
2018-07-13T11:37:32.150Z,22.10
2018-07-13T11:39:59.807Z,23.20
2018-07-13T11:42:27.431Z,22.80
2018-07-13T11:44:55.296Z,22.50
2018-07-13T11:47:22.911Z,22.20
2018-07-13T11:49:50.510Z,21.80
2018-07-13T11:52:18.099Z,20.80
2018-07-13T11:54:45.766Z,21.60
2018-07-13T11:57:13.906Z,22.10
2018-07-13T11:59:42.220Z,21.30
2018-07-13T12:02:09.863Z,20.60
2018-07-13T12:04:37.438Z,20.90
2018-07-13T12:07:05.308Z,20.20
2018-07-13T12:09:32.882Z,20.50
2018-07-13T12:12:00.577Z,20.00
2018-07-13T12:14:28.245Z,20.90
2018-07-13T12:16:55.813Z,20.50
2018-07-13T12:19:24.007Z,21.10
2018-07-13T12:21:51.738Z,20.90
2018-07-13T12:24:19.303Z,20.20
2018-07-13T12:26:46.980Z,21.60
2018-07-13T12:29:14.709Z,21.50
2018-07-13T12:31:42.414Z,22.10
2018-07-13T12:34:10.479Z,21.70
2018-07-13T12:36:38.235Z,22.30
2018-07-13T12:39:06.226Z,22.40
2018-07-13T12:41:33.754Z,21.00
2018-07-13T12:44:01.376Z,20.50
2018-07-13T12:46:29.577Z,20.20
2018-07-13T12:48:57.201Z,19.80
2018-07-13T12:51:24.780Z,19.00
2018-07-13T12:53:52.544Z,19.40
2018-07-13T12:56:20.037Z,19.20
2018-07-13T12:58:47.658Z,18.40
2018-07-13T13:01:15.253Z,19.10
2018-07-13T13:03:43.047Z,19.30
2018-07-13T13:06:10.611Z,19.50
2018-07-13T13:08:38.237Z,19.60
2018-07-13T13:11:07.468Z,20.00
2018-07-13T13:13:35.043Z,20.40
2018-07-13T13:16:02.850Z,20.80
2018-07-13T13:18:30.480Z,21.50
2018-07-13T13:20:58.084Z,22.60
2018-07-13T13:23:25.817Z,21.30
2018-07-13T13:25:53.385Z,24.60
2018-07-13T13:28:20.980Z,23.80
2018-07-13T13:30:48.586Z,27.90
2018-07-13T13:33:16.162Z,30.40
2018-07-13T13:35:43.862Z,32.20
2018-07-13T13:38:11.514Z,33.40
2018-07-13T13:40:39.151Z,32.00
2018-07-13T13:43:06.951Z,31.70
2018-07-13T13:45:34.536Z,34.60
2018-07-13T13:48:03.213Z,32.70
2018-07-13T13:50:30.855Z,29.10
2018-07-13T13:52:58.466Z,30.50
2018-07-13T13:55:26.054Z,28.80
2018-07-13T13:57:53.633Z,30.00
2018-07-13T14:00:21.402Z,27.80
2018-07-13T14:02:49.028Z,27.80
2018-07-13T14:05:16.790Z,26.40
2018-07-13T14:07:44.676Z,25.90
2018-07-13T14:10:12.759Z,23.90
2018-07-13T14:12:40.396Z,24.10
2018-07-13T14:15:07.989Z,24.40
2018-07-13T14:17:35.630Z,23.00
2018-07-13T14:20:03.278Z,22.10
2018-07-13T14:22:32.240Z,22.30
2018-07-13T14:24:59.878Z,22.50
2018-07-13T14:27:27.446Z,22.30
2018-07-13T14:29:55.916Z,22.10
2018-07-13T14:32:23.566Z,23.40
2018-07-13T14:34:51.248Z,23.50
2018-07-13T14:37:18.883Z,24.40
2018-07-13T14:39:46.816Z,24.40
2018-07-13T14:42:14.515Z,24.40
2018-07-13T14:44:42.058Z,24.90
2018-07-13T14:47:09.735Z,24.80
2018-07-13T14:49:37.279Z,24.80
2018-07-13T14:52:04.938Z,25.20
2018-07-13T14:54:34.184Z,26.30
2018-07-13T14:57:01.799Z,26.40
2018-07-13T14:59:29.482Z,27.10
2018-07-13T15:01:57.114Z,27.00
2018-07-13T15:04:24.749Z,27.00
2018-07-13T15:06:53.321Z,27.70
2018-07-13T15:09:24.184Z,27.00
2018-07-13T15:11:51.963Z,27.60
2018-07-13T15:14:19.486Z,27.30
2018-07-13T15:16:47.086Z,27.80
2018-07-13T15:19:14.847Z,27.90
2018-07-13T15:21:44.783Z,28.40
2018-07-13T15:24:14.033Z,28.70
2018-07-13T15:26:41.578Z,28.40
2018-07-13T15:29:09.242Z,28.70
2018-07-13T15:31:36.888Z,29.60
2018-07-13T15:34:04.777Z,28.70
2018-07-13T15:36:32.543Z,28.60
2018-07-13T15:39:01.956Z,27.80
2018-07-13T15:41:29.592Z,28.30
2018-07-13T15:43:57.150Z,28.80
2018-07-13T15:46:24.721Z,26.90
2018-07-13T15:48:52.668Z,27.00
2018-07-13T15:51:20.190Z,26.80
2018-07-13T15:53:47.907Z,25.50
2018-07-13T15:56:15.521Z,25.70
2018-07-13T15:58:43.354Z,25.70
2018-07-13T16:01:13.943Z,25.50
2018-07-13T16:03:41.544Z,25.10
2018-07-13T16:06:09.124Z,25.60
2018-07-13T16:08:36.730Z,24.90
2018-07-13T16:11:11.343Z,25.50
2018-07-13T16:13:39.561Z,25.00
2018-07-13T16:16:10.818Z,25.40
2018-07-13T16:18:40.165Z,25.40
2018-07-13T16:21:07.798Z,25.10
2018-07-13T16:23:35.395Z,25.50
2018-07-13T16:26:03.446Z,23.40
2018-07-13T16:28:32.076Z,25.00
2018-07-13T16:31:00.436Z,24.70
2018-07-13T16:33:28.028Z,24.50
2018-07-13T16:35:55.645Z,24.50
2018-07-13T16:38:23.743Z,24.60
2018-07-13T16:40:51.343Z,24.70
2018-07-13T16:43:18.910Z,23.60
2018-07-13T16:45:46.496Z,23.60
2018-07-13T16:48:15.551Z,24.00
2018-07-13T16:50:43.376Z,23.50
2018-07-13T16:53:11.343Z,23.80
2018-07-13T16:55:38.938Z,23.60
2018-07-13T16:58:06.604Z,23.60
2018-07-13T17:00:34.179Z,23.90
2018-07-13T17:03:02.771Z,24.20
2018-07-13T17:05:36.134Z,24.00
2018-07-13T17:08:05.860Z,23.80
2018-07-13T17:10:33.586Z,24.50
2018-07-13T17:13:01.208Z,24.40
2018-07-13T17:15:32.503Z,24.50
2018-07-13T17:18:00.240Z,24.30
2018-07-13T17:20:28.362Z,23.80
2018-07-13T17:22:58.557Z,24.20
2018-07-13T17:25:26.173Z,24.40
2018-07-13T17:27:53.828Z,24.20
2018-07-13T17:30:21.454Z,24.10
2018-07-13T17:32:49.168Z,24.50
2018-07-13T17:35:16.810Z,24.20
2018-07-13T17:37:44.433Z,24.80
2018-07-13T17:40:12.602Z,25.40
2018-07-13T17:42:40.262Z,25.10
2018-07-13T17:45:08.015Z,25.10
2018-07-13T17:47:35.609Z,25.90
2018-07-13T17:50:03.219Z,25.80
2018-07-13T17:52:31.040Z,25.70
2018-07-13T17:54:58.583Z,26.50
2018-07-13T17:57:26.529Z,26.70
2018-07-13T17:59:54.205Z,26.70
2018-07-13T18:02:22.948Z,26.60
2018-07-13T18:04:51.573Z,26.60
2018-07-13T18:07:19.202Z,26.60
2018-07-13T18:09:46.794Z,27.70
2018-07-13T18:12:14.705Z,28.00
2018-07-13T18:14:42.666Z,27.50
2018-07-13T18:17:10.446Z,27.60
2018-07-13T18:19:38.028Z,27.90
2018-07-13T18:22:07.117Z,28.00
2018-07-13T18:24:34.646Z,28.40
2018-07-13T18:27:02.370Z,28.60
2018-07-13T18:29:30.027Z,29.50
2018-07-13T18:31:57.592Z,30.30
2018-07-13T18:34:25.170Z,30.20
2018-07-13T18:36:52.793Z,30.20
2018-07-13T18:39:21.130Z,30.20
2018-07-13T18:41:48.798Z,30.30
2018-07-13T18:44:16.506Z,30.30
2018-07-13T18:46:44.718Z,30.60
2018-07-13T18:49:12.720Z,31.50
2018-07-13T18:51:40.292Z,31.00
2018-07-13T18:54:07.999Z,31.60
2018-07-13T18:56:35.834Z,32.00
2018-07-13T18:59:03.390Z,33.20
2018-07-13T19:01:31.050Z,33.20
2018-07-13T19:04:08.282Z,33.50
2018-07-13T19:06:51.281Z,34.80
2018-07-13T19:09:33.278Z,34.70
2018-07-13T19:12:01.020Z,34.70
2018-07-13T19:14:28.741Z,34.50
2018-07-13T19:16:56.298Z,35.00
2018-07-13T19:19:24.252Z,36.10
2018-07-13T19:21:52.010Z,36.50
2018-07-13T19:24:19.607Z,36.90
2018-07-13T19:26:47.177Z,37.20
2018-07-13T19:29:14.843Z,37.40
2018-07-13T19:31:43.769Z,38.60
2018-07-13T19:34:11.414Z,38.40
2018-07-13T19:36:39.050Z,39.00
2018-07-13T19:39:06.804Z,38.60
2018-07-13T19:41:34.452Z,39.30
2018-07-13T19:44:02.168Z,39.80
2018-07-13T19:46:29.913Z,40.30
2018-07-13T19:48:57.501Z,40.90
2018-07-13T19:51:25.069Z,40.90
2018-07-13T19:53:52.666Z,41.70
2018-07-13T19:56:20.625Z,41.70
2018-07-13T19:58:48.237Z,42.00
2018-07-13T20:01:15.797Z,42.40
2018-07-13T20:03:44.280Z,43.50
2018-07-13T20:06:11.935Z,42.80
2018-07-13T20:08:39.505Z,43.40
2018-07-13T20:11:07.141Z,43.20
2018-07-13T20:13:34.724Z,43.20
2018-07-13T20:16:02.298Z,43.20
2018-07-13T20:18:29.890Z,43.00
2018-07-13T20:20:57.562Z,43.00
2018-07-13T20:23:25.482Z,43.90
2018-07-13T20:25:53.083Z,44.10
2018-07-13T20:28:22.392Z,44.90
2018-07-13T20:30:50.061Z,45.00
2018-07-13T20:33:17.922Z,45.60
2018-07-13T20:35:45.620Z,46.20
2018-07-13T20:38:13.618Z,45.40
2018-07-13T20:40:42.466Z,46.00
2018-07-13T20:43:10.078Z,46.50
2018-07-13T20:45:37.779Z,46.50
2018-07-13T20:48:05.469Z,46.10
2018-07-13T20:50:33.499Z,46.00
2018-07-13T20:53:01.494Z,45.90
2018-07-13T20:55:29.205Z,46.40
2018-07-13T20:57:57.361Z,45.50
2018-07-13T21:00:25.299Z,46.50
2018-07-13T21:02:53.462Z,46.10
2018-07-13T21:05:21.467Z,45.90
2018-07-13T21:07:49.022Z,46.00
2018-07-13T21:10:16.982Z,46.20
2018-07-13T21:12:44.824Z,45.60
2018-07-13T21:15:12.561Z,45.60
2018-07-13T21:17:40.777Z,44.00
2018-07-13T21:20:08.809Z,43.50
2018-07-13T21:22:36.696Z,45.70
2018-07-13T21:25:04.695Z,45.10
2018-07-13T21:27:33.141Z,45.40
2018-07-13T21:30:01.224Z,44.70
2018-07-13T21:32:29.173Z,45.60
2018-07-13T21:34:57.265Z,45.30
2018-07-13T21:37:25.607Z,46.00
2018-07-13T21:39:53.238Z,46.00
2018-07-13T21:42:21.556Z,46.10
2018-07-13T21:44:49.604Z,46.60
2018-07-13T21:47:17.267Z,46.50
2018-07-13T21:49:44.994Z,46.70
2018-07-13T21:52:14.028Z,46.70
2018-07-13T21:54:41.904Z,46.40
2018-07-13T21:57:09.808Z,47.70
2018-07-13T21:59:37.731Z,47.70
2018-07-13T22:02:05.429Z,47.70
2018-07-13T22:04:33.089Z,48.10
2018-07-13T22:07:01.045Z,48.00
2018-07-13T22:09:29.130Z,47.80
2018-07-13T22:11:56.730Z,47.50
2018-07-13T22:14:24.336Z,47.40
2018-07-13T22:16:51.946Z,47.70
2018-07-13T22:19:19.547Z,47.50
2018-07-13T22:21:47.307Z,47.70
2018-07-13T22:24:15.075Z,47.70
2018-07-13T22:26:42.734Z,47.50
2018-07-13T22:29:10.431Z,47.90
2018-07-13T22:31:38.134Z,48.50
2018-07-13T22:34:06.022Z,48.80
2018-07-13T22:36:33.589Z,48.00
2018-07-13T22:39:03.669Z,48.00
2018-07-13T22:41:32.048Z,48.30
2018-07-13T22:43:59.687Z,48.50
2018-07-13T22:46:27.206Z,48.50
2018-07-13T22:48:54.770Z,48.50
2018-07-13T22:51:22.455Z,48.90
2018-07-13T22:53:50.124Z,48.70
2018-07-13T22:56:17.770Z,49.40
2018-07-13T22:58:45.311Z,49.80
2018-07-13T23:01:13.064Z,50.20
2018-07-13T23:03:40.622Z,49.90
2018-07-13T23:06:08.363Z,49.70
2018-07-13T23:08:36.108Z,50.10
2018-07-13T23:11:03.761Z,50.20
2018-07-13T23:13:31.410Z,50.20
2018-07-13T23:15:59.041Z,49.70
2018-07-13T23:18:26.644Z,49.40
2018-07-13T23:20:54.177Z,49.50
2018-07-13T23:23:21.775Z,50.10
2018-07-13T23:25:49.326Z,50.00
2018-07-13T23:28:16.856Z,50.20
2018-07-13T23:30:44.594Z,50.50
2018-07-13T23:33:12.192Z,50.60
2018-07-13T23:35:39.832Z,50.60
2018-07-13T23:38:07.612Z,50.50
2018-07-13T23:40:35.269Z,50.60
2018-07-13T23:43:02.886Z,50.40
2018-07-13T23:45:30.486Z,50.40
2018-07-13T23:47:58.117Z,51.10
2018-07-13T23:50:25.665Z,50.90
2018-07-13T23:52:53.373Z,50.90
2018-07-13T23:55:20.943Z,51.70
2018-07-13T23:57:49.523Z,52.00
